< < Back
Terminal Aerodrome Forecast


Current Version              Previous Versions:   1  2  3  4  5  6  7  8  9  

Terminal Aerodrome Forecast

804
FTUS42 KCAE 201500 AAA
TAFCAE
TAF AMD
KCAE 201501Z 2015/2112 05010G17KT P6SM FEW045 BKN200
     FM202200 06010KT P6SM BKN200
     FM210100 05003KT P6SM FEW250=



Latest METAR

592
SAUS80 KWBC 202000 CCA
MTRCAE
METAR KCAE 201956Z 05010KT 10SM BKN150 28/13 A3003 RMK AO2 SLP165
T02780133


USA.gov is the U.S. government's official web portal to all federal, state and local government web resources and services.